sensor_id;sensor_type;location;lat;lon;timestamp;pressure;altitude;pressure_sealevel;temperature
51693;BMP280;37777;53.066;21.638;2023-09-19T00:05:38;99967.81;;;19.50
51693;BMP280;37777;53.066;21.638;2023-09-19T00:12:43;99968.28;;;19.45
51693;BMP280;37777;53.066;21.638;2023-09-19T00:19:44;99964.03;;;19.44
51693;BMP280;37777;53.066;21.638;2023-09-19T00:26:47;99956.69;;;19.37
51693;BMP280;37777;53.066;21.638;2023-09-19T00:33:49;99956.84;;;19.27
51693;BMP280;37777;53.066;21.638;2023-09-19T00:40:50;99954.94;;;19.23
51693;BMP280;37777;53.066;21.638;2023-09-19T00:47:55;99948.44;;;19.14
51693;BMP280;37777;53.066;21.638;2023-09-19T00:54:57;99937.91;;;19.12
51693;BMP280;37777;53.066;21.638;2023-09-19T01:02:02;99934.78;;;19.10
51693;BMP280;37777;53.066;21.638;2023-09-19T01:09:04;99930.91;;;19.08
51693;BMP280;37777;53.066;21.638;2023-09-19T01:30:43;99911.13;;;18.96
51693;BMP280;37777;53.066;21.638;2023-09-19T01:37:45;99907.25;;;18.94
51693;BMP280;37777;53.066;21.638;2023-09-19T01:52:00;99897.94;;;18.88
51693;BMP280;37777;53.066;21.638;2023-09-19T01:59:10;99885.44;;;18.87
51693;BMP280;37777;53.066;21.638;2023-09-19T02:06:17;99878.88;;;18.80
51693;BMP280;37777;53.066;21.638;2023-09-19T02:13:20;99871.50;;;18.77
51693;BMP280;37777;53.066;21.638;2023-09-19T02:20:22;99872.75;;;18.73
51693;BMP280;37777;53.066;21.638;2023-09-19T02:27:23;99866.41;;;18.76
51693;BMP280;37777;53.066;21.638;2023-09-19T02:34:25;99849.97;;;18.76
51693;BMP280;37777;53.066;21.638;2023-09-19T02:41:27;99849.69;;;18.70
51693;BMP280;37777;53.066;21.638;2023-09-19T02:48:30;99842.28;;;18.67
51693;BMP280;37777;53.066;21.638;2023-09-19T02:55:33;99832.50;;;18.66
51693;BMP280;37777;53.066;21.638;2023-09-19T03:02:36;99829.06;;;18.62
51693;BMP280;37777;53.066;21.638;2023-09-19T03:09:37;99826.38;;;18.58
51693;BMP280;37777;53.066;21.638;2023-09-19T03:16:39;99805.72;;;18.54
51693;BMP280;37777;53.066;21.638;2023-09-19T03:23:41;99810.25;;;18.40
51693;BMP280;37777;53.066;21.638;2023-09-19T03:30:42;99814.16;;;18.39
51693;BMP280;37777;53.066;21.638;2023-09-19T03:37:44;99798.44;;;18.43
51693;BMP280;37777;53.066;21.638;2023-09-19T03:44:45;99793.47;;;18.35
51693;BMP280;37777;53.066;21.638;2023-09-19T03:51:47;99798.59;;;18.33
51693;BMP280;37777;53.066;21.638;2023-09-19T03:58:49;99792.88;;;18.23
51693;BMP280;37777;53.066;21.638;2023-09-19T04:05:50;99795.25;;;18.21
51693;BMP280;37777;53.066;21.638;2023-09-19T04:12:53;99784.00;;;18.16
51693;BMP280;37777;53.066;21.638;2023-09-19T04:19:54;99772.69;;;18.14
51693;BMP280;37777;53.066;21.638;2023-09-19T04:26:56;99769.47;;;18.19
51693;BMP280;37777;53.066;21.638;2023-09-19T04:33:58;99747.56;;;18.19
51693;BMP280;37777;53.066;21.638;2023-09-19T04:41:06;99750.78;;;18.14
51693;BMP280;37777;53.066;21.638;2023-09-19T04:48:07;99754.66;;;18.16
51693;BMP280;37777;53.066;21.638;2023-09-19T04:55:14;99756.22;;;18.17
51693;BMP280;37777;53.066;21.638;2023-09-19T05:02:19;99745.22;;;18.21
51693;BMP280;37777;53.066;21.638;2023-09-19T05:09:21;99752.09;;;18.29
51693;BMP280;37777;53.066;21.638;2023-09-19T05:16:22;99750.47;;;18.35
51693;BMP280;37777;53.066;21.638;2023-09-19T05:23:23;99733.44;;;18.47
51693;BMP280;37777;53.066;21.638;2023-09-19T05:30:26;99728.97;;;18.57
51693;BMP280;37777;53.066;21.638;2023-09-19T05:37:30;99727.13;;;18.74
51693;BMP280;37777;53.066;21.638;2023-09-19T05:44:32;99727.50;;;18.96
51693;BMP280;37777;53.066;21.638;2023-09-19T05:51:34;99726.84;;;19.09
51693;BMP280;37777;53.066;21.638;2023-09-19T05:58:36;99722.06;;;19.13
51693;BMP280;37777;53.066;21.638;2023-09-19T06:05:39;99719.91;;;19.24
51693;BMP280;37777;53.066;21.638;2023-09-19T06:12:43;99727.38;;;19.43
51693;BMP280;37777;53.066;21.638;2023-09-19T06:19:47;99718.41;;;19.59
51693;BMP280;37777;53.066;21.638;2023-09-19T06:26:51;99728.66;;;19.75
51693;BMP280;37777;53.066;21.638;2023-09-19T06:33:56;99729.59;;;19.85
51693;BMP280;37777;53.066;21.638;2023-09-19T06:40:58;99730.28;;;19.89
51693;BMP280;37777;53.066;21.638;2023-09-19T06:48:00;99735.88;;;20.02
51693;BMP280;37777;53.066;21.638;2023-09-19T06:55:04;99731.25;;;20.15
51693;BMP280;37777;53.066;21.638;2023-09-19T07:02:07;99734.78;;;20.32
51693;BMP280;37777;53.066;21.638;2023-09-19T07:09:09;99749.34;;;20.46
51693;BMP280;37777;53.066;21.638;2023-09-19T07:16:11;99756.28;;;20.50
51693;BMP280;37777;53.066;21.638;2023-09-19T07:23:28;99751.28;;;20.61
51693;BMP280;37777;53.066;21.638;2023-09-19T07:30:31;99758.00;;;20.90
51693;BMP280;37777;53.066;21.638;2023-09-19T07:37:32;99757.84;;;20.97
51693;BMP280;37777;53.066;21.638;2023-09-19T07:44:37;99754.28;;;21.38
51693;BMP280;37777;53.066;21.638;2023-09-19T07:51:39;99767.63;;;21.66
51693;BMP280;37777;53.066;21.638;2023-09-19T07:58:42;99770.19;;;21.86
51693;BMP280;37777;53.066;21.638;2023-09-19T08:05:45;99764.66;;;21.73
51693;BMP280;37777;53.066;21.638;2023-09-19T08:12:49;99769.09;;;21.83
51693;BMP280;37777;53.066;21.638;2023-09-19T08:19:57;99761.34;;;21.91
51693;BMP280;37777;53.066;21.638;2023-09-19T08:26:58;99771.31;;;21.88
51693;BMP280;37777;53.066;21.638;2023-09-19T08:34:00;99758.06;;;21.83
51693;BMP280;37777;53.066;21.638;2023-09-19T08:41:06;99759.16;;;21.73
51693;BMP280;37777;53.066;21.638;2023-09-19T08:48:25;99776.56;;;21.70
51693;BMP280;37777;53.066;21.638;2023-09-19T08:55:28;99774.34;;;21.90
51693;BMP280;37777;53.066;21.638;2023-09-19T09:02:31;99774.91;;;21.98
51693;BMP280;37777;53.066;21.638;2023-09-19T09:09:35;99786.91;;;21.91
51693;BMP280;37777;53.066;21.638;2023-09-19T09:16:37;99795.84;;;21.70
51693;BMP280;37777;53.066;21.638;2023-09-19T09:23:38;99794.19;;;21.59
51693;BMP280;37777;53.066;21.638;2023-09-19T09:30:40;99809.09;;;21.46
51693;BMP280;37777;53.066;21.638;2023-09-19T09:37:43;99810.75;;;21.43
51693;BMP280;37777;53.066;21.638;2023-09-19T09:45:15;99818.34;;;21.10
51693;BMP280;37777;53.066;21.638;2023-09-19T09:52:17;99837.03;;;20.86
51693;BMP280;37777;53.066;21.638;2023-09-19T09:59:21;99853.38;;;20.60
51693;BMP280;37777;53.066;21.638;2023-09-19T10:06:25;99876.19;;;20.24
51693;BMP280;37777;53.066;21.638;2023-09-19T10:13:29;99896.63;;;20.03
51693;BMP280;37777;53.066;21.638;2023-09-19T10:20:32;99886.59;;;19.96
51693;BMP280;37777;53.066;21.638;2023-09-19T10:27:39;99891.25;;;19.79
51693;BMP280;37777;53.066;21.638;2023-09-19T10:34:42;99893.00;;;19.70
51693;BMP280;37777;53.066;21.638;2023-09-19T10:41:50;99889.28;;;19.80
51693;BMP280;37777;53.066;21.638;2023-09-19T10:48:59;99884.81;;;19.86
51693;BMP280;37777;53.066;21.638;2023-09-19T10:56:02;99884.00;;;19.89
51693;BMP280;37777;53.066;21.638;2023-09-19T11:10:45;99881.50;;;19.95
51693;BMP280;37777;53.066;21.638;2023-09-19T11:17:50;99876.31;;;20.00
51693;BMP280;37777;53.066;21.638;2023-09-19T11:24:53;99885.00;;;20.15
51693;BMP280;37777;53.066;21.638;2023-09-19T11:31:58;99889.16;;;20.03
51693;BMP280;37777;53.066;21.638;2023-09-19T11:39:01;99903.06;;;19.96
51693;BMP280;37777;53.066;21.638;2023-09-19T11:46:10;99895.03;;;20.06
51693;BMP280;37777;53.066;21.638;2023-09-19T11:53:12;99911.00;;;20.11
51693;BMP280;37777;53.066;21.638;2023-09-19T12:00:18;99908.94;;;20.15
51693;BMP280;37777;53.066;21.638;2023-09-19T12:07:20;99917.69;;;20.10
51693;BMP280;37777;53.066;21.638;2023-09-19T12:14:23;99912.03;;;20.17
51693;BMP280;37777;53.066;21.638;2023-09-19T12:21:29;99923.47;;;20.15
51693;BMP280;37777;53.066;21.638;2023-09-19T12:28:41;99932.03;;;19.97
51693;BMP280;37777;53.066;21.638;2023-09-19T12:35:43;99930.50;;;19.96
51693;BMP280;37777;53.066;21.638;2023-09-19T12:42:46;99941.72;;;20.06
51693;BMP280;37777;53.066;21.638;2023-09-19T12:50:11;99934.47;;;20.12
51693;BMP280;37777;53.066;21.638;2023-09-19T12:57:24;99949.63;;;20.20
51693;BMP280;37777;53.066;21.638;2023-09-19T13:04:27;99956.44;;;20.12
51693;BMP280;37777;53.066;21.638;2023-09-19T13:11:36;99959.16;;;19.95
51693;BMP280;37777;53.066;21.638;2023-09-19T13:18:48;99952.31;;;20.03
51693;BMP280;37777;53.066;21.638;2023-09-19T13:25:52;99966.59;;;20.15
51693;BMP280;37777;53.066;21.638;2023-09-19T13:33:11;99964.78;;;20.28
51693;BMP280;37777;53.066;21.638;2023-09-19T13:40:15;99968.13;;;20.36
51693;BMP280;37777;53.066;21.638;2023-09-19T13:47:20;99970.66;;;20.47
51693;BMP280;37777;53.066;21.638;2023-09-19T13:54:26;99959.31;;;20.45
51693;BMP280;37777;53.066;21.638;2023-09-19T14:01:27;99945.50;;;20.48
51693;BMP280;37777;53.066;21.638;2023-09-19T14:08:29;99958.63;;;20.40
51693;BMP280;37777;53.066;21.638;2023-09-19T14:15:30;99962.13;;;20.41
51693;BMP280;37777;53.066;21.638;2023-09-19T14:22:33;99959.13;;;20.52
51693;BMP280;37777;53.066;21.638;2023-09-19T14:29:36;99972.56;;;20.50
51693;BMP280;37777;53.066;21.638;2023-09-19T14:36:38;99963.44;;;20.53
51693;BMP280;37777;53.066;21.638;2023-09-19T14:43:42;99968.94;;;20.53
51693;BMP280;37777;53.066;21.638;2023-09-19T14:50:44;99972.88;;;20.52
51693;BMP280;37777;53.066;21.638;2023-09-19T14:57:49;99970.13;;;20.52
51693;BMP280;37777;53.066;21.638;2023-09-19T15:04:52;99974.13;;;20.51
51693;BMP280;37777;53.066;21.638;2023-09-19T15:11:54;99977.69;;;20.48
51693;BMP280;37777;53.066;21.638;2023-09-19T15:18:56;99977.84;;;20.40
51693;BMP280;37777;53.066;21.638;2023-09-19T15:25:58;99971.97;;;20.38
51693;BMP280;37777;53.066;21.638;2023-09-19T15:32:59;99968.47;;;20.38
51693;BMP280;37777;53.066;21.638;2023-09-19T15:40:01;99981.09;;;20.35
51693;BMP280;37777;53.066;21.638;2023-09-19T15:47:03;100002.66;;;20.37
51693;BMP280;37777;53.066;21.638;2023-09-19T15:54:11;99986.50;;;20.39
51693;BMP280;37777;53.066;21.638;2023-09-19T16:01:15;99989.72;;;20.37
51693;BMP280;37777;53.066;21.638;2023-09-19T16:08:17;100006.38;;;20.27
51693;BMP280;37777;53.066;21.638;2023-09-19T16:15:18;100016.38;;;20.17
51693;BMP280;37777;53.066;21.638;2023-09-19T16:22:20;100025.25;;;20.05
51693;BMP280;37777;53.066;21.638;2023-09-19T16:29:21;100029.34;;;19.96
51693;BMP280;37777;53.066;21.638;2023-09-19T16:36:25;100033.03;;;19.86
51693;BMP280;37777;53.066;21.638;2023-09-19T16:43:28;100042.59;;;19.78
51693;BMP280;37777;53.066;21.638;2023-09-19T16:50:31;100046.97;;;19.75
51693;BMP280;37777;53.066;21.638;2023-09-19T16:57:33;100049.81;;;19.68
51693;BMP280;37777;53.066;21.638;2023-09-19T17:04:34;100053.41;;;19.65
51693;BMP280;37777;53.066;21.638;2023-09-19T17:11:35;100059.81;;;19.55
51693;BMP280;37777;53.066;21.638;2023-09-19T17:18:40;100059.56;;;19.49
51693;BMP280;37777;53.066;21.638;2023-09-19T17:25:45;100066.38;;;19.37
51693;BMP280;37777;53.066;21.638;2023-09-19T17:32:47;100073.88;;;19.33
51693;BMP280;37777;53.066;21.638;2023-09-19T17:39:48;100086.53;;;19.23
51693;BMP280;37777;53.066;21.638;2023-09-19T17:46:50;100093.75;;;19.14
51693;BMP280;37777;53.066;21.638;2023-09-19T17:53:53;100102.41;;;19.12
51693;BMP280;37777;53.066;21.638;2023-09-19T18:00:56;100105.25;;;19.05
51693;BMP280;37777;53.066;21.638;2023-09-19T18:08:00;100115.84;;;18.99
51693;BMP280;37777;53.066;21.638;2023-09-19T18:15:01;100123.41;;;18.92
51693;BMP280;37777;53.066;21.638;2023-09-19T18:22:03;100128.22;;;18.84
51693;BMP280;37777;53.066;21.638;2023-09-19T18:29:06;100134.94;;;18.76
51693;BMP280;37777;53.066;21.638;2023-09-19T18:36:07;100132.25;;;18.72
51693;BMP280;37777;53.066;21.638;2023-09-19T18:43:10;100131.13;;;18.66
51693;BMP280;37777;53.066;21.638;2023-09-19T18:50:13;100142.13;;;18.62
51693;BMP280;37777;53.066;21.638;2023-09-19T18:57:18;100149.28;;;18.53
51693;BMP280;37777;53.066;21.638;2023-09-19T19:04:19;100162.28;;;18.45
51693;BMP280;37777;53.066;21.638;2023-09-19T19:11:21;100156.91;;;18.34
51693;BMP280;37777;53.066;21.638;2023-09-19T19:18:23;100160.88;;;18.30
51693;BMP280;37777;53.066;21.638;2023-09-19T19:25:29;100169.44;;;18.28
51693;BMP280;37777;53.066;21.638;2023-09-19T19:32:31;100173.84;;;18.22
51693;BMP280;37777;53.066;21.638;2023-09-19T19:39:33;100175.44;;;18.16
51693;BMP280;37777;53.066;21.638;2023-09-19T19:46:37;100179.03;;;18.05
51693;BMP280;37777;53.066;21.638;2023-09-19T19:53:38;100167.00;;;17.96
51693;BMP280;37777;53.066;21.638;2023-09-19T20:00:43;100188.53;;;17.90
51693;BMP280;37777;53.066;21.638;2023-09-19T20:07:44;100180.38;;;17.83
51693;BMP280;37777;53.066;21.638;2023-09-19T20:14:49;100190.19;;;17.77
51693;BMP280;37777;53.066;21.638;2023-09-19T20:21:50;100195.69;;;17.66
51693;BMP280;37777;53.066;21.638;2023-09-19T20:28:52;100198.09;;;17.60
51693;BMP280;37777;53.066;21.638;2023-09-19T20:35:57;100201.63;;;17.50
51693;BMP280;37777;53.066;21.638;2023-09-19T20:42:59;100189.97;;;17.39
51693;BMP280;37777;53.066;21.638;2023-09-19T20:50:01;100200.56;;;17.29
51693;BMP280;37777;53.066;21.638;2023-09-19T20:57:03;100204.91;;;17.20
51693;BMP280;37777;53.066;21.638;2023-09-19T21:04:04;100210.78;;;17.15
51693;BMP280;37777;53.066;21.638;2023-09-19T21:11:19;100208.44;;;17.02
51693;BMP280;37777;53.066;21.638;2023-09-19T21:18:21;100204.59;;;16.92
51693;BMP280;37777;53.066;21.638;2023-09-19T21:25:23;100209.28;;;16.85
51693;BMP280;37777;53.066;21.638;2023-09-19T21:32:24;100212.03;;;16.74
51693;BMP280;37777;53.066;21.638;2023-09-19T21:39:26;100205.03;;;16.62
51693;BMP280;37777;53.066;21.638;2023-09-19T21:46:27;100206.94;;;16.65
51693;BMP280;37777;53.066;21.638;2023-09-19T21:53:29;100216.38;;;16.53
51693;BMP280;37777;53.066;21.638;2023-09-19T22:00:32;100215.19;;;16.47
51693;BMP280;37777;53.066;21.638;2023-09-19T22:07:39;100216.34;;;16.39
51693;BMP280;37777;53.066;21.638;2023-09-19T22:14:41;100216.34;;;16.35
51693;BMP280;37777;53.066;21.638;2023-09-19T22:21:42;100218.69;;;16.30
51693;BMP280;37777;53.066;21.638;2023-09-19T22:28:50;100208.91;;;16.14
51693;BMP280;37777;53.066;21.638;2023-09-19T22:35:52;100212.41;;;16.15
51693;BMP280;37777;53.066;21.638;2023-09-19T22:43:05;100217.88;;;16.11
51693;BMP280;37777;53.066;21.638;2023-09-19T22:50:08;100220.16;;;16.06
51693;BMP280;37777;53.066;21.638;2023-09-19T22:57:14;100228.38;;;16.02
51693;BMP280;37777;53.066;21.638;2023-09-19T23:04:16;100229.91;;;15.89
51693;BMP280;37777;53.066;21.638;2023-09-19T23:11:19;100235.34;;;15.85
51693;BMP280;37777;53.066;21.638;2023-09-19T23:18:23;100237.25;;;15.77
51693;BMP280;37777;53.066;21.638;2023-09-19T23:25:25;100247.34;;;15.63
51693;BMP280;37777;53.066;21.638;2023-09-19T23:32:32;100251.97;;;15.55
51693;BMP280;37777;53.066;21.638;2023-09-19T23:39:33;100244.94;;;15.47
51693;BMP280;37777;53.066;21.638;2023-09-19T23:46:36;100250.38;;;15.43
51693;BMP280;37777;53.066;21.638;2023-09-19T23:53:42;100261.25;;;15.36
